sensor_id;sensor_type;location;lat;lon;timestamp;P1;durP1;ratioP1;P2;durP2;ratioP2
43990;SDS011;29654;50.784;20.604;2022-10-16T00:02:47;14.93;;;13.43;;
43990;SDS011;29654;50.784;20.604;2022-10-16T00:07:50;15.18;;;13.60;;
43990;SDS011;29654;50.784;20.604;2022-10-16T00:13:01;12.48;;;11.15;;
43990;SDS011;29654;50.784;20.604;2022-10-16T00:18:26;11.38;;;10.15;;
43990;SDS011;29654;50.784;20.604;2022-10-16T00:23:30;12.48;;;11.00;;
43990;SDS011;29654;50.784;20.604;2022-10-16T00:28:38;10.55;;;9.45;;
43990;SDS011;29654;50.784;20.604;2022-10-16T00:33:41;12.38;;;11.07;;
43990;SDS011;29654;50.784;20.604;2022-10-16T00:38:45;13.43;;;11.60;;
43990;SDS011;29654;50.784;20.604;2022-10-16T00:43:51;12.57;;;10.63;;
43990;SDS011;29654;50.784;20.604;2022-10-16T00:48:59;12.45;;;11.20;;
43990;SDS011;29654;50.784;20.604;2022-10-16T00:54:13;10.57;;;9.48;;
43990;SDS011;29654;50.784;20.604;2022-10-16T00:59:24;12.18;;;10.88;;
43990;SDS011;29654;50.784;20.604;2022-10-16T01:04:30;11.15;;;10.15;;
43990;SDS011;29654;50.784;20.604;2022-10-16T01:09:40;13.25;;;10.38;;
43990;SDS011;29654;50.784;20.604;2022-10-16T01:14:59;11.60;;;10.48;;
43990;SDS011;29654;50.784;20.604;2022-10-16T01:20:11;12.00;;;10.80;;
43990;SDS011;29654;50.784;20.604;2022-10-16T01:25:25;13.25;;;10.35;;
43990;SDS011;29654;50.784;20.604;2022-10-16T01:30:43;11.40;;;10.35;;
43990;SDS011;29654;50.784;20.604;2022-10-16T01:35:55;11.75;;;10.38;;
43990;SDS011;29654;50.784;20.604;2022-10-16T01:41:04;11.85;;;10.70;;
43990;SDS011;29654;50.784;20.604;2022-10-16T01:46:14;10.43;;;9.55;;
43990;SDS011;29654;50.784;20.604;2022-10-16T01:51:20;10.52;;;9.52;;
43990;SDS011;29654;50.784;20.604;2022-10-16T01:56:25;11.00;;;9.93;;
43990;SDS011;29654;50.784;20.604;2022-10-16T02:01:31;10.23;;;9.27;;
43990;SDS011;29654;50.784;20.604;2022-10-16T02:06:37;10.80;;;9.80;;
43990;SDS011;29654;50.784;20.604;2022-10-16T02:11:40;11.68;;;9.90;;
43990;SDS011;29654;50.784;20.604;2022-10-16T02:16:45;10.75;;;9.63;;
43990;SDS011;29654;50.784;20.604;2022-10-16T02:21:49;9.43;;;8.52;;
43990;SDS011;29654;50.784;20.604;2022-10-16T02:26:57;9.27;;;8.45;;
43990;SDS011;29654;50.784;20.604;2022-10-16T02:32:10;9.82;;;8.82;;
43990;SDS011;29654;50.784;20.604;2022-10-16T02:37:18;10.30;;;9.13;;
43990;SDS011;29654;50.784;20.604;2022-10-16T02:42:27;10.88;;;9.45;;
43990;SDS011;29654;50.784;20.604;2022-10-16T02:47:33;9.27;;;8.35;;
43990;SDS011;29654;50.784;20.604;2022-10-16T02:52:36;8.90;;;8.02;;
43990;SDS011;29654;50.784;20.604;2022-10-16T02:57:40;9.85;;;8.52;;
43990;SDS011;29654;50.784;20.604;2022-10-16T03:02:45;8.35;;;7.50;;
43990;SDS011;29654;50.784;20.604;2022-10-16T03:07:48;9.07;;;8.27;;
43990;SDS011;29654;50.784;20.604;2022-10-16T03:12:52;8.98;;;7.85;;
43990;SDS011;29654;50.784;20.604;2022-10-16T03:17:58;8.95;;;8.05;;
43990;SDS011;29654;50.784;20.604;2022-10-16T03:23:02;9.07;;;8.27;;
43990;SDS011;29654;50.784;20.604;2022-10-16T03:28:05;8.05;;;7.28;;
43990;SDS011;29654;50.784;20.604;2022-10-16T03:33:09;8.77;;;8.07;;
43990;SDS011;29654;50.784;20.604;2022-10-16T03:38:12;7.10;;;6.50;;
43990;SDS011;29654;50.784;20.604;2022-10-16T03:43:15;8.65;;;7.93;;
43990;SDS011;29654;50.784;20.604;2022-10-16T03:48:19;8.27;;;7.57;;
43990;SDS011;29654;50.784;20.604;2022-10-16T03:53:22;8.65;;;7.72;;
43990;SDS011;29654;50.784;20.604;2022-10-16T03:58:25;7.97;;;7.18;;
43990;SDS011;29654;50.784;20.604;2022-10-16T04:03:30;7.50;;;6.72;;
43990;SDS011;29654;50.784;20.604;2022-10-16T04:08:33;9.20;;;7.07;;
43990;SDS011;29654;50.784;20.604;2022-10-16T04:13:37;7.82;;;7.00;;
43990;SDS011;29654;50.784;20.604;2022-10-16T04:18:41;7.07;;;6.43;;
43990;SDS011;29654;50.784;20.604;2022-10-16T04:23:44;7.22;;;6.57;;
43990;SDS011;29654;50.784;20.604;2022-10-16T04:28:47;7.55;;;6.85;;
43990;SDS011;29654;50.784;20.604;2022-10-16T04:33:51;8.27;;;7.57;;
43990;SDS011;29654;50.784;20.604;2022-10-16T04:38:54;8.98;;;8.18;;
43990;SDS011;29654;50.784;20.604;2022-10-16T04:43:57;8.95;;;8.15;;
43990;SDS011;29654;50.784;20.604;2022-10-16T04:49:03;10.38;;;8.60;;
43990;SDS011;29654;50.784;20.604;2022-10-16T04:54:05;9.95;;;9.07;;
43990;SDS011;29654;50.784;20.604;2022-10-16T04:59:08;9.75;;;8.55;;
43990;SDS011;29654;50.784;20.604;2022-10-16T05:04:13;8.65;;;7.85;;
43990;SDS011;29654;50.784;20.604;2022-10-16T05:09:16;8.77;;;7.97;;
43990;SDS011;29654;50.784;20.604;2022-10-16T05:14:20;8.23;;;7.53;;
43990;SDS011;29654;50.784;20.604;2022-10-16T05:19:24;9.05;;;8.18;;
43990;SDS011;29654;50.784;20.604;2022-10-16T05:24:27;10.95;;;8.27;;
43990;SDS011;29654;50.784;20.604;2022-10-16T05:29:31;10.13;;;8.43;;
43990;SDS011;29654;50.784;20.604;2022-10-16T05:34:35;8.88;;;7.97;;
43990;SDS011;29654;50.784;20.604;2022-10-16T05:39:38;8.60;;;7.63;;
43990;SDS011;29654;50.784;20.604;2022-10-16T05:44:41;8.18;;;7.45;;
43990;SDS011;29654;50.784;20.604;2022-10-16T05:49:45;7.65;;;6.95;;
43990;SDS011;29654;50.784;20.604;2022-10-16T05:54:48;8.98;;;7.95;;
43990;SDS011;29654;50.784;20.604;2022-10-16T05:59:51;7.38;;;6.72;;
43990;SDS011;29654;50.784;20.604;2022-10-16T06:04:55;7.50;;;6.72;;
43990;SDS011;29654;50.784;20.604;2022-10-16T06:09:58;7.05;;;6.35;;
43990;SDS011;29654;50.784;20.604;2022-10-16T06:15:01;6.88;;;6.28;;
43990;SDS011;29654;50.784;20.604;2022-10-16T06:20:06;8.32;;;7.50;;
43990;SDS011;29654;50.784;20.604;2022-10-16T06:25:10;7.68;;;6.97;;
43990;SDS011;29654;50.784;20.604;2022-10-16T06:30:13;7.07;;;6.38;;
43990;SDS011;29654;50.784;20.604;2022-10-16T06:35:17;7.20;;;6.45;;
43990;SDS011;29654;50.784;20.604;2022-10-16T06:40:21;6.95;;;6.25;;
43990;SDS011;29654;50.784;20.604;2022-10-16T06:45:23;7.45;;;6.68;;
43990;SDS011;29654;50.784;20.604;2022-10-16T06:50:31;6.97;;;6.28;;
43990;SDS011;29654;50.784;20.604;2022-10-16T06:55:36;6.75;;;6.13;;
43990;SDS011;29654;50.784;20.604;2022-10-16T07:00:39;6.80;;;6.25;;
43990;SDS011;29654;50.784;20.604;2022-10-16T07:05:43;7.45;;;6.60;;
43990;SDS011;29654;50.784;20.604;2022-10-16T07:10:46;8.07;;;6.28;;
43990;SDS011;29654;50.784;20.604;2022-10-16T07:15:51;7.53;;;6.53;;
43990;SDS011;29654;50.784;20.604;2022-10-16T07:21:03;6.93;;;6.10;;
43990;SDS011;29654;50.784;20.604;2022-10-16T07:26:08;6.28;;;5.63;;
43990;SDS011;29654;50.784;20.604;2022-10-16T07:31:12;6.55;;;5.97;;
43990;SDS011;29654;50.784;20.604;2022-10-16T07:36:18;6.38;;;5.78;;
43990;SDS011;29654;50.784;20.604;2022-10-16T07:41:22;6.57;;;5.97;;
43990;SDS011;29654;50.784;20.604;2022-10-16T07:46:25;7.53;;;6.07;;
43990;SDS011;29654;50.784;20.604;2022-10-16T07:51:30;6.05;;;5.45;;
43990;SDS011;29654;50.784;20.604;2022-10-16T07:56:33;5.78;;;5.30;;
43990;SDS011;29654;50.784;20.604;2022-10-16T08:01:37;6.75;;;6.13;;
43990;SDS011;29654;50.784;20.604;2022-10-16T08:06:43;6.35;;;5.75;;
43990;SDS011;29654;50.784;20.604;2022-10-16T08:11:46;6.63;;;6.13;;
43990;SDS011;29654;50.784;20.604;2022-10-16T08:16:49;6.78;;;6.07;;
43990;SDS011;29654;50.784;20.604;2022-10-16T08:21:53;7.15;;;6.35;;
43990;SDS011;29654;50.784;20.604;2022-10-16T08:26:56;6.53;;;5.80;;
43990;SDS011;29654;50.784;20.604;2022-10-16T08:31:59;6.05;;;5.45;;
43990;SDS011;29654;50.784;20.604;2022-10-16T08:37:04;6.15;;;5.65;;
43990;SDS011;29654;50.784;20.604;2022-10-16T08:42:14;6.40;;;5.88;;
43990;SDS011;29654;50.784;20.604;2022-10-16T08:47:43;5.50;;;5.00;;
43990;SDS011;29654;50.784;20.604;2022-10-16T08:52:53;5.63;;;5.13;;
43990;SDS011;29654;50.784;20.604;2022-10-16T08:57:58;6.63;;;5.93;;
43990;SDS011;29654;50.784;20.604;2022-10-16T09:03:04;5.63;;;5.13;;
43990;SDS011;29654;50.784;20.604;2022-10-16T09:08:19;9.35;;;5.65;;
43990;SDS011;29654;50.784;20.604;2022-10-16T09:13:34;5.47;;;5.00;;
43990;SDS011;29654;50.784;20.604;2022-10-16T09:18:50;5.57;;;5.07;;
43990;SDS011;29654;50.784;20.604;2022-10-16T09:24:08;5.82;;;5.32;;
43990;SDS011;29654;50.784;20.604;2022-10-16T09:29:15;5.78;;;5.13;;
43990;SDS011;29654;50.784;20.604;2022-10-16T09:34:23;5.55;;;5.05;;
43990;SDS011;29654;50.784;20.604;2022-10-16T09:39:45;5.00;;;4.60;;
43990;SDS011;29654;50.784;20.604;2022-10-16T09:44:49;5.47;;;4.32;;
43990;SDS011;29654;50.784;20.604;2022-10-16T09:49:54;5.22;;;4.72;;
43990;SDS011;29654;50.784;20.604;2022-10-16T09:55:12;5.13;;;4.63;;
43990;SDS011;29654;50.784;20.604;2022-10-16T10:00:17;5.50;;;4.90;;
43990;SDS011;29654;50.784;20.604;2022-10-16T10:05:22;8.38;;;5.00;;
43990;SDS011;29654;50.784;20.604;2022-10-16T10:10:30;5.05;;;4.55;;
43990;SDS011;29654;50.784;20.604;2022-10-16T10:15:41;5.75;;;5.15;;
43990;SDS011;29654;50.784;20.604;2022-10-16T10:20:44;4.93;;;4.47;;
43990;SDS011;29654;50.784;20.604;2022-10-16T10:25:51;4.72;;;4.32;;
43990;SDS011;29654;50.784;20.604;2022-10-16T10:31:01;4.78;;;4.45;;
43990;SDS011;29654;50.784;20.604;2022-10-16T10:36:13;5.13;;;4.72;;
43990;SDS011;29654;50.784;20.604;2022-10-16T10:41:44;4.72;;;4.25;;
43990;SDS011;29654;50.784;20.604;2022-10-16T10:47:08;5.60;;;5.10;;
43990;SDS011;29654;50.784;20.604;2022-10-16T10:52:32;6.22;;;4.93;;
43990;SDS011;29654;50.784;20.604;2022-10-16T10:57:49;5.30;;;4.82;;
43990;SDS011;29654;50.784;20.604;2022-10-16T11:03:12;4.65;;;4.28;;
43990;SDS011;29654;50.784;20.604;2022-10-16T11:08:35;5.45;;;4.97;;
43990;SDS011;29654;50.784;20.604;2022-10-16T11:13:54;5.40;;;4.93;;
43990;SDS011;29654;50.784;20.604;2022-10-16T11:19:02;4.93;;;4.53;;
43990;SDS011;29654;50.784;20.604;2022-10-16T11:24:16;6.20;;;4.55;;
43990;SDS011;29654;50.784;20.604;2022-10-16T11:29:27;4.95;;;4.45;;
43990;SDS011;29654;50.784;20.604;2022-10-16T11:34:34;4.88;;;4.47;;
43990;SDS011;29654;50.784;20.604;2022-10-16T11:39:43;4.63;;;4.22;;
43990;SDS011;29654;50.784;20.604;2022-10-16T11:44:50;4.82;;;4.43;;
43990;SDS011;29654;50.784;20.604;2022-10-16T11:50:02;4.82;;;4.30;;
43990;SDS011;29654;50.784;20.604;2022-10-16T11:55:14;4.72;;;4.32;;
43990;SDS011;29654;50.784;20.604;2022-10-16T12:00:24;4.90;;;4.50;;
43990;SDS011;29654;50.784;20.604;2022-10-16T12:05:33;4.80;;;4.40;;
43990;SDS011;29654;50.784;20.604;2022-10-16T12:10:53;4.63;;;4.22;;
43990;SDS011;29654;50.784;20.604;2022-10-16T12:16:21;5.28;;;4.78;;
43990;SDS011;29654;50.784;20.604;2022-10-16T12:21:29;5.65;;;5.07;;
43990;SDS011;29654;50.784;20.604;2022-10-16T12:26:33;6.03;;;5.10;;
43990;SDS011;29654;50.784;20.604;2022-10-16T12:31:45;4.97;;;4.57;;
43990;SDS011;29654;50.784;20.604;2022-10-16T12:36:50;4.88;;;4.47;;
43990;SDS011;29654;50.784;20.604;2022-10-16T12:42:00;4.70;;;4.30;;
43990;SDS011;29654;50.784;20.604;2022-10-16T12:47:17;4.53;;;4.13;;
43990;SDS011;29654;50.784;20.604;2022-10-16T12:52:25;4.75;;;4.40;;
43990;SDS011;29654;50.784;20.604;2022-10-16T12:57:34;5.00;;;4.50;;
43990;SDS011;29654;50.784;20.604;2022-10-16T13:08:42;4.57;;;4.18;;
43990;SDS011;29654;50.784;20.604;2022-10-16T13:14:10;5.35;;;4.57;;
43990;SDS011;29654;50.784;20.604;2022-10-16T13:19:41;5.32;;;4.38;;
43990;SDS011;29654;50.784;20.604;2022-10-16T13:24:53;5.90;;;4.47;;
43990;SDS011;29654;50.784;20.604;2022-10-16T13:30:11;4.70;;;4.25;;
43990;SDS011;29654;50.784;20.604;2022-10-16T13:35:18;4.63;;;4.20;;
43990;SDS011;29654;50.784;20.604;2022-10-16T13:40:28;4.15;;;3.72;;
43990;SDS011;29654;50.784;20.604;2022-10-16T13:45:32;4.35;;;4.03;;
43990;SDS011;29654;50.784;20.604;2022-10-16T13:50:35;6.80;;;4.22;;
43990;SDS011;29654;50.784;20.604;2022-10-16T13:55:42;4.53;;;4.13;;
43990;SDS011;29654;50.784;20.604;2022-10-16T14:00:56;5.18;;;4.45;;
43990;SDS011;29654;50.784;20.604;2022-10-16T14:06:01;5.10;;;4.15;;
43990;SDS011;29654;50.784;20.604;2022-10-16T14:11:11;4.82;;;4.30;;
43990;SDS011;29654;50.784;20.604;2022-10-16T14:16:16;4.22;;;3.85;;
43990;SDS011;29654;50.784;20.604;2022-10-16T14:21:21;4.50;;;4.10;;
43990;SDS011;29654;50.784;20.604;2022-10-16T14:26:27;4.72;;;4.32;;
43990;SDS011;29654;50.784;20.604;2022-10-16T14:31:31;4.68;;;4.28;;
43990;SDS011;29654;50.784;20.604;2022-10-16T14:36:36;4.43;;;4.03;;
43990;SDS011;29654;50.784;20.604;2022-10-16T14:41:45;4.07;;;3.72;;
43990;SDS011;29654;50.784;20.604;2022-10-16T14:46:51;6.35;;;4.68;;
43990;SDS011;29654;50.784;20.604;2022-10-16T14:51:54;3.95;;;3.65;;
43990;SDS011;29654;50.784;20.604;2022-10-16T14:57:03;4.20;;;3.90;;
43990;SDS011;29654;50.784;20.604;2022-10-16T15:02:09;5.63;;;4.32;;
43990;SDS011;29654;50.784;20.604;2022-10-16T15:07:25;4.65;;;4.25;;
43990;SDS011;29654;50.784;20.604;2022-10-16T15:12:29;4.70;;;3.88;;
43990;SDS011;29654;50.784;20.604;2022-10-16T15:17:33;4.70;;;4.25;;
43990;SDS011;29654;50.784;20.604;2022-10-16T15:22:36;4.97;;;4.40;;
43990;SDS011;29654;50.784;20.604;2022-10-16T15:27:41;6.15;;;4.00;;
43990;SDS011;29654;50.784;20.604;2022-10-16T15:32:44;4.50;;;3.97;;
43990;SDS011;29654;50.784;20.604;2022-10-16T15:37:47;5.03;;;4.25;;
43990;SDS011;29654;50.784;20.604;2022-10-16T15:42:52;5.00;;;4.20;;
43990;SDS011;29654;50.784;20.604;2022-10-16T15:47:58;4.85;;;4.45;;
43990;SDS011;29654;50.784;20.604;2022-10-16T15:53:02;4.72;;;4.32;;
43990;SDS011;29654;50.784;20.604;2022-10-16T15:58:06;5.00;;;4.38;;
43990;SDS011;29654;50.784;20.604;2022-10-16T16:03:12;4.70;;;4.28;;
43990;SDS011;29654;50.784;20.604;2022-10-16T16:08:16;5.15;;;4.53;;
43990;SDS011;29654;50.784;20.604;2022-10-16T16:13:22;5.32;;;4.93;;
43990;SDS011;29654;50.784;20.604;2022-10-16T16:18:25;6.45;;;4.25;;
43990;SDS011;29654;50.784;20.604;2022-10-16T16:23:29;5.38;;;4.78;;
43990;SDS011;29654;50.784;20.604;2022-10-16T16:28:34;5.15;;;4.35;;
43990;SDS011;29654;50.784;20.604;2022-10-16T16:33:38;5.45;;;4.97;;
43990;SDS011;29654;50.784;20.604;2022-10-16T16:38:43;5.72;;;4.82;;
43990;SDS011;29654;50.784;20.604;2022-10-16T16:43:48;6.53;;;5.75;;
43990;SDS011;29654;50.784;20.604;2022-10-16T16:48:52;5.60;;;5.07;;
43990;SDS011;29654;50.784;20.604;2022-10-16T16:53:55;7.45;;;5.35;;
43990;SDS011;29654;50.784;20.604;2022-10-16T16:59:00;6.97;;;5.65;;
43990;SDS011;29654;50.784;20.604;2022-10-16T17:04:05;7.22;;;5.18;;
43990;SDS011;29654;50.784;20.604;2022-10-16T17:09:08;7.55;;;5.13;;
43990;SDS011;29654;50.784;20.604;2022-10-16T17:14:15;7.55;;;5.70;;
43990;SDS011;29654;50.784;20.604;2022-10-16T17:19:18;10.18;;;5.35;;
43990;SDS011;29654;50.784;20.604;2022-10-16T17:24:25;6.55;;;5.35;;
43990;SDS011;29654;50.784;20.604;2022-10-16T17:29:29;7.60;;;6.18;;
43990;SDS011;29654;50.784;20.604;2022-10-16T17:34:33;6.75;;;5.82;;
43990;SDS011;29654;50.784;20.604;2022-10-16T17:39:36;8.50;;;6.45;;
43990;SDS011;29654;50.784;20.604;2022-10-16T17:44:40;6.88;;;5.13;;
43990;SDS011;29654;50.784;20.604;2022-10-16T17:49:43;7.20;;;5.70;;
43990;SDS011;29654;50.784;20.604;2022-10-16T17:54:49;7.32;;;5.13;;
43990;SDS011;29654;50.784;20.604;2022-10-16T17:59:54;8.73;;;6.45;;
43990;SDS011;29654;50.784;20.604;2022-10-16T18:04:57;7.13;;;6.43;;
43990;SDS011;29654;50.784;20.604;2022-10-16T18:10:00;7.80;;;6.57;;
43990;SDS011;29654;50.784;20.604;2022-10-16T18:15:09;6.57;;;5.95;;
43990;SDS011;29654;50.784;20.604;2022-10-16T18:20:12;6.25;;;5.28;;
43990;SDS011;29654;50.784;20.604;2022-10-16T18:25:15;9.13;;;7.18;;
43990;SDS011;29654;50.784;20.604;2022-10-16T18:30:20;7.32;;;5.85;;
43990;SDS011;29654;50.784;20.604;2022-10-16T18:35:23;7.88;;;6.47;;
43990;SDS011;29654;50.784;20.604;2022-10-16T18:40:26;9.50;;;7.05;;
43990;SDS011;29654;50.784;20.604;2022-10-16T18:45:31;8.43;;;7.07;;
43990;SDS011;29654;50.784;20.604;2022-10-16T18:50:34;8.15;;;7.30;;
43990;SDS011;29654;50.784;20.604;2022-10-16T18:55:37;7.88;;;7.07;;
43990;SDS011;29654;50.784;20.604;2022-10-16T19:00:42;8.38;;;7.00;;
43990;SDS011;29654;50.784;20.604;2022-10-16T19:05:45;9.20;;;7.68;;
43990;SDS011;29654;50.784;20.604;2022-10-16T19:10:49;7.93;;;7.20;;
43990;SDS011;29654;50.784;20.604;2022-10-16T19:15:53;9.73;;;8.73;;
43990;SDS011;29654;50.784;20.604;2022-10-16T19:21:00;8.70;;;7.80;;
43990;SDS011;29654;50.784;20.604;2022-10-16T19:26:04;11.27;;;8.57;;
43990;SDS011;29654;50.784;20.604;2022-10-16T19:31:11;18.05;;;15.02;;
43990;SDS011;29654;50.784;20.604;2022-10-16T19:36:18;22.42;;;18.25;;
43990;SDS011;29654;50.784;20.604;2022-10-16T19:41:24;26.30;;;21.00;;
43990;SDS011;29654;50.784;20.604;2022-10-16T19:46:30;30.05;;;23.20;;
43990;SDS011;29654;50.784;20.604;2022-10-16T19:51:33;31.08;;;25.17;;
43990;SDS011;29654;50.784;20.604;2022-10-16T19:56:37;37.95;;;29.23;;
43990;SDS011;29654;50.784;20.604;2022-10-16T20:01:42;23.75;;;19.88;;
43990;SDS011;29654;50.784;20.604;2022-10-16T20:06:45;23.75;;;18.40;;
43990;SDS011;29654;50.784;20.604;2022-10-16T20:11:48;25.10;;;19.10;;
43990;SDS011;29654;50.784;20.604;2022-10-16T20:16:55;24.52;;;20.13;;
43990;SDS011;29654;50.784;20.604;2022-10-16T20:22:02;25.42;;;20.70;;
43990;SDS011;29654;50.784;20.604;2022-10-16T20:27:30;26.73;;;20.85;;
43990;SDS011;29654;50.784;20.604;2022-10-16T20:32:35;26.25;;;23.23;;
43990;SDS011;29654;50.784;20.604;2022-10-16T20:37:38;28.05;;;23.10;;
43990;SDS011;29654;50.784;20.604;2022-10-16T20:42:44;27.20;;;21.10;;
43990;SDS011;29654;50.784;20.604;2022-10-16T20:47:49;31.77;;;22.20;;
43990;SDS011;29654;50.784;20.604;2022-10-16T20:52:53;28.58;;;24.13;;
43990;SDS011;29654;50.784;20.604;2022-10-16T20:57:58;27.00;;;22.92;;
43990;SDS011;29654;50.784;20.604;2022-10-16T21:03:03;30.90;;;25.42;;
43990;SDS011;29654;50.784;20.604;2022-10-16T21:08:06;26.30;;;22.33;;
43990;SDS011;29654;50.784;20.604;2022-10-16T21:13:09;31.83;;;24.40;;
43990;SDS011;29654;50.784;20.604;2022-10-16T21:18:14;28.60;;;23.33;;
43990;SDS011;29654;50.784;20.604;2022-10-16T21:23:17;29.52;;;23.42;;
43990;SDS011;29654;50.784;20.604;2022-10-16T21:28:20;27.05;;;21.73;;
43990;SDS011;29654;50.784;20.604;2022-10-16T21:33:24;28.65;;;23.77;;
43990;SDS011;29654;50.784;20.604;2022-10-16T21:38:27;27.48;;;22.52;;
43990;SDS011;29654;50.784;20.604;2022-10-16T21:43:30;27.77;;;23.05;;
43990;SDS011;29654;50.784;20.604;2022-10-16T21:48:35;30.63;;;24.52;;
43990;SDS011;29654;50.784;20.604;2022-10-16T21:53:39;31.38;;;24.80;;
43990;SDS011;29654;50.784;20.604;2022-10-16T21:58:43;25.00;;;22.20;;
43990;SDS011;29654;50.784;20.604;2022-10-16T22:03:48;28.65;;;22.75;;
43990;SDS011;29654;50.784;20.604;2022-10-16T22:08:52;24.80;;;22.13;;
43990;SDS011;29654;50.784;20.604;2022-10-16T22:14:01;25.02;;;22.35;;
43990;SDS011;29654;50.784;20.604;2022-10-16T22:19:07;23.58;;;19.75;;
43990;SDS011;29654;50.784;20.604;2022-10-16T22:24:11;26.98;;;20.23;;
43990;SDS011;29654;50.784;20.604;2022-10-16T22:29:15;26.67;;;21.90;;
43990;SDS011;29654;50.784;20.604;2022-10-16T22:34:20;24.35;;;21.02;;
43990;SDS011;29654;50.784;20.604;2022-10-16T22:39:23;22.88;;;19.40;;
43990;SDS011;29654;50.784;20.604;2022-10-16T22:44:30;25.00;;;21.45;;
43990;SDS011;29654;50.784;20.604;2022-10-16T22:49:34;24.88;;;22.00;;
43990;SDS011;29654;50.784;20.604;2022-10-16T22:54:37;21.15;;;18.92;;
43990;SDS011;29654;50.784;20.604;2022-10-16T22:59:42;19.80;;;17.75;;
43990;SDS011;29654;50.784;20.604;2022-10-16T23:04:47;22.95;;;20.52;;
43990;SDS011;29654;50.784;20.604;2022-10-16T23:09:53;21.98;;;19.27;;
43990;SDS011;29654;50.784;20.604;2022-10-16T23:14:56;24.02;;;19.25;;
43990;SDS011;29654;50.784;20.604;2022-10-16T23:20:03;20.92;;;17.13;;
43990;SDS011;29654;50.784;20.604;2022-10-16T23:25:07;20.75;;;17.90;;
43990;SDS011;29654;50.784;20.604;2022-10-16T23:30:12;22.23;;;17.35;;
43990;SDS011;29654;50.784;20.604;2022-10-16T23:35:16;21.58;;;19.27;;
43990;SDS011;29654;50.784;20.604;2022-10-16T23:40:22;20.77;;;18.65;;
43990;SDS011;29654;50.784;20.604;2022-10-16T23:45:29;20.05;;;17.95;;
43990;SDS011;29654;50.784;20.604;2022-10-16T23:50:34;20.45;;;18.27;;
43990;SDS011;29654;50.784;20.604;2022-10-16T23:55:37;19.77;;;17.77;;
